Terminal Aerodrome Forecast
Issued by NWS Shreveport, LA

Home | Current Version | Previous Version | Text Only | Print | Product List | Glossary On
Versions: 1 2 3 4 5 6 7 8 9 10 11 12 13 14 15 16 17 18 19 20 21 22 23 24 25 26 27 28 29 30 31
000
FTUS44 KSHV 240550
TAFTXK
TAF
KTXK 240550Z 2406/2506 03014G20KT 6SM -RA BR VCTS SCT040CB OVC080
      TEMPO 2406/2409 VRB06G15KT 4SM -TSRA BR BKN007CB
     FM240900 12004KT 4SM BR BKN004
      TEMPO 2409/2412 1/4SM FG OVC003
     FM241200 21006KT 4SM BR BKN007
     FM241400 21006KT 6SM BR BKN015
     FM241600 22010KT P6SM SCT040 BKN250=

USA.gov is the U.S. government's official web portal to all federal, state and local government web resources and services.